Time;durP1;ratioP1;P1;durP2;ratioP2;P2;SDS_P1;SDS_P2;PMS_P1;PMS_P2;Temp;Humidity;BMP_temperature;BMP_pressure;BME280_temperature;BME280_humidity;BME280_pressure;Samples;Min_cycle;Max_cycle;Signal;HPM_P1;HPM_P2
2021/11/03 00:00:21;;;;;;;3.42;1.95;;;;;;;;;;5000844;28;20524;-55
2021/11/03 00:02:47;;;;;;;2.67;2.10;;;;;;;;;;4997110;28;20438;-55
2021/11/03 00:05:15;;;;;;;2.08;1.73;;;;;;;;;;5001478;28;20361;-56
2021/11/03 00:07:42;;;;;;;3.33;1.80;;;;;;;;;;5004331;28;20472;-55
2021/11/03 00:10:09;;;;;;;4.45;2.10;;;;;;;;;;5000475;28;20031;-55
2021/11/03 00:12:35;;;;;;;6.05;2.50;;;;;;;;;;5002022;28;20054;-55
2021/11/03 00:15:00;;;;;;;6.30;2.63;;;;;;;;;;5007823;28;20048;-55
2021/11/03 00:17:26;;;;;;;4.43;2.47;;;;;;;;;;4999807;28;20029;-55
2021/11/03 00:19:52;;;;;;;3.95;2.17;;;;;;;;;;4999524;28;20026;-56
2021/11/03 00:22:18;;;;;;;2.90;2.00;;;;;;;;;;5003172;28;20034;-56
2021/11/03 00:24:44;;;;;;;5.63;3.05;;;;;;;;;;5000956;28;20030;-56
2021/11/03 00:27:10;;;;;;;4.55;2.78;;;;;;;;;;5001937;28;20030;-56
2021/11/03 00:29:37;;;;;;;6.07;2.90;;;;;;;;;;5016833;28;20041;-56
2021/11/03 00:32:04;;;;;;;5.07;2.55;;;;;;;;;;5000292;28;20030;-56
2021/11/03 00:34:30;;;;;;;4.95;2.85;;;;;;;;;;5001646;28;20073;-56
2021/11/03 00:36:55;;;;;;;7.47;3.28;;;;;;;;;;4998514;28;20057;-56
2021/11/03 00:39:22;;;;;;;7.18;3.13;;;;;;;;;;4998811;28;20211;-55
2021/11/03 00:41:49;;;;;;;5.03;2.90;;;;;;;;;;5006329;28;20022;-56
2021/11/03 00:44:15;;;;;;;5.88;3.40;;;;;;;;;;5000413;28;20392;-55
2021/11/03 00:46:41;;;;;;;7.72;3.30;;;;;;;;;;5001618;28;20084;-56
2021/11/03 00:49:06;;;;;;;6.07;2.95;;;;;;;;;;4997984;28;20030;-55
2021/11/03 00:51:32;;;;;;;5.18;2.53;;;;;;;;;;5001880;28;20022;-56
2021/11/03 00:53:58;;;;;;;6.13;2.92;;;;;;;;;;5002649;28;20112;-56
2021/11/03 00:56:23;;;;;;;5.75;2.72;;;;;;;;;;4997230;28;20069;-56
2021/11/03 00:58:49;;;;;;;4.30;2.60;;;;;;;;;;5016090;28;20140;-56
2021/11/03 01:01:14;;;;;;;3.67;2.70;;;;;;;;;;4994063;28;20026;-56
2021/11/03 01:03:40;;;;;;;4.53;2.60;;;;;;;;;;5003915;28;20160;-55
2021/11/03 01:06:05;;;;;;;7.38;3.33;;;;;;;;;;4996442;28;20053;-55
2021/11/03 01:08:32;;;;;;;8.05;3.58;;;;;;;;;;5000632;28;20044;-56
2021/11/03 01:10:57;;;;;;;6.72;3.80;;;;;;;;;;5002431;28;20217;-56
2021/11/03 01:13:24;;;;;;;7.30;3.92;;;;;;;;;;5005437;28;20116;-56
2021/11/03 01:15:50;;;;;;;7.57;4.22;;;;;;;;;;4996362;28;20064;-57
2021/11/03 01:18:16;;;;;;;6.82;3.80;;;;;;;;;;4997662;28;20048;-55
2021/11/03 01:20:44;;;;;;;9.02;4.75;;;;;;;;;;5005528;28;20022;-56
2021/11/03 01:23:10;;;;;;;8.98;3.90;;;;;;;;;;5002726;28;20117;-57
2021/11/03 01:25:37;;;;;;;9.30;3.85;;;;;;;;;;5001299;28;20323;-56
2021/11/03 01:28:03;;;;;;;5.10;3.40;;;;;;;;;;5002347;28;20419;-55
2021/11/03 01:30:29;;;;;;;4.97;3.35;;;;;;;;;;5018929;28;20512;-56
2021/11/03 01:32:56;;;;;;;5.15;3.45;;;;;;;;;;5000067;28;20062;-56
2021/11/03 01:35:23;;;;;;;4.60;3.13;;;;;;;;;;4999053;28;20420;-56
2021/11/03 01:37:49;;;;;;;4.47;3.33;;;;;;;;;;5001507;28;20018;-55
2021/11/03 01:40:18;;;;;;;6.10;3.30;;;;;;;;;;4998872;28;20065;-57
2021/11/03 01:42:44;;;;;;;4.55;3.10;;;;;;;;;;5001458;28;20079;-55
2021/11/03 01:45:12;;;;;;;6.40;3.00;;;;;;;;;;5001748;28;20030;-56
2021/11/03 01:47:48;;;;;;;4.75;2.95;;;;;;;;;;5011649;28;20029;-56
2021/11/03 01:50:56;;;;;;;4.95;2.97;;;;;;;;;;5005051;28;20072;-57
2021/11/03 01:53:31;;;;;;;5.07;3.13;;;;;;;;;;4998195;28;20236;-57
2021/11/03 01:56:01;;;;;;;4.70;3.00;;;;;;;;;;4997110;28;20030;-56
2021/11/03 01:58:33;;;;;;;6.13;3.00;;;;;;;;;;4991695;28;20038;-56
2021/11/03 02:00:59;;;;;;;4.10;2.67;;;;;;;;;;4999156;28;20296;-56
2021/11/03 02:03:28;;;;;;;3.13;2.47;;;;;;;;;;5016715;28;20085;-56
2021/11/03 02:06:00;;;;;;;3.43;2.50;;;;;;;;;;5000054;28;20532;-56
2021/11/03 02:08:28;;;;;;;3.10;2.40;;;;;;;;;;5000789;28;20735;-55
2021/11/03 02:10:54;;;;;;;4.15;2.22;;;;;;;;;;5005289;28;20029;-56
2021/11/03 02:13:20;;;;;;;2.42;1.98;;;;;;;;;;5000832;28;20034;-56
2021/11/03 02:15:46;;;;;;;3.35;1.98;;;;;;;;;;4996284;28;20061;-56
2021/11/03 02:18:14;;;;;;;2.20;1.88;;;;;;;;;;5001116;28;20056;-57
2021/11/03 02:20:42;;;;;;;3.88;2.17;;;;;;;;;;4997928;28;20037;-55
2021/11/03 02:23:29;;;;;;;2.42;2.10;;;;;;;;;;4998244;28;20017;-56
2021/11/03 02:26:09;;;;;;;4.88;2.10;;;;;;;;;;4998081;28;20504;-57
2021/11/03 02:28:35;;;;;;;3.53;2.67;;;;;;;;;;5001103;28;20040;-56
2021/11/03 02:31:01;;;;;;;7.07;2.40;;;;;;;;;;4996921;28;20038;-56
2021/11/03 02:33:28;;;;;;;4.15;2.22;;;;;;;;;;5001765;28;20030;-57
2021/11/03 02:35:59;;;;;;;4.15;2.30;;;;;;;;;;5002423;28;20146;-56
2021/11/03 02:38:27;;;;;;;3.10;2.30;;;;;;;;;;5002921;28;20025;-55
2021/11/03 02:41:12;;;;;;;2.70;2.17;;;;;;;;;;5000140;28;20531;-56
2021/11/03 02:43:45;;;;;;;2.72;2.47;;;;;;;;;;5002796;28;20031;-56
2021/11/03 02:46:13;;;;;;;3.10;2.35;;;;;;;;;;5000134;28;20022;-57
2021/11/03 02:48:40;;;;;;;4.22;2.22;;;;;;;;;;5003657;28;20369;-56
2021/11/03 02:51:22;;;;;;;2.60;2.03;;;;;;;;;;4997365;28;20496;-56
2021/11/03 02:54:03;;;;;;;4.97;2.45;;;;;;;;;;5001471;28;20105;-56
2021/11/03 02:56:31;;;;;;;3.08;2.38;;;;;;;;;;5002131;28;20029;-56
2021/11/03 02:58:57;;;;;;;6.38;2.30;;;;;;;;;;4999488;28;20042;-56
2021/11/03 03:01:31;;;;;;;3.22;2.33;;;;;;;;;;5003125;28;20024;-55
2021/11/03 03:03:57;;;;;;;4.50;2.70;;;;;;;;;;5002565;28;20532;-55
2021/11/03 03:06:25;;;;;;;4.25;2.28;;;;;;;;;;4996740;28;20084;-57
2021/11/03 03:08:51;;;;;;;3.60;2.20;;;;;;;;;;4996207;28;20198;-56
2021/11/03 03:11:17;;;;;;;3.03;2.10;;;;;;;;;;5015311;28;20457;-56
2021/11/03 03:13:43;;;;;;;2.72;2.40;;;;;;;;;;5004115;28;20026;-56
2021/11/03 03:16:09;;;;;;;3.55;2.30;;;;;;;;;;4999509;28;20500;-56
2021/11/03 03:18:34;;;;;;;3.08;2.70;;;;;;;;;;5005801;28;20049;-56
2021/11/03 03:21:00;;;;;;;2.90;2.20;;;;;;;;;;5004055;28;20544;-57
2021/11/03 03:23:26;;;;;;;4.07;2.10;;;;;;;;;;5006488;28;20033;-56
2021/11/03 03:25:52;;;;;;;3.20;2.10;;;;;;;;;;5004379;28;20034;-56
2021/11/03 03:28:18;;;;;;;5.13;2.20;;;;;;;;;;4999828;28;20052;-56
2021/11/03 03:30:44;;;;;;;3.25;2.40;;;;;;;;;;5005754;28;20496;-56
2021/11/03 03:33:10;;;;;;;4.20;2.20;;;;;;;;;;5004931;28;20038;-57
2021/11/03 03:35:36;;;;;;;3.22;2.20;;;;;;;;;;5003181;28;20040;-57
2021/11/03 03:38:02;;;;;;;4.35;2.17;;;;;;;;;;5003032;28;20030;-57
2021/11/03 03:40:27;;;;;;;4.63;2.35;;;;;;;;;;5005959;28;20079;-57
2021/11/03 03:42:52;;;;;;;3.33;2.65;;;;;;;;;;5008382;28;20112;-57
2021/11/03 03:45:18;;;;;;;3.15;2.30;;;;;;;;;;5006933;28;20170;-57
2021/11/03 03:47:43;;;;;;;3.60;2.20;;;;;;;;;;5004216;28;20078;-57
2021/11/03 03:50:10;;;;;;;4.00;2.13;;;;;;;;;;5005563;28;20498;-57
2021/11/03 03:52:35;;;;;;;2.45;1.92;;;;;;;;;;5001283;28;20026;-57
2021/11/03 03:55:02;;;;;;;3.60;2.28;;;;;;;;;;5001269;28;20056;-57
2021/11/03 03:57:28;;;;;;;5.10;2.35;;;;;;;;;;5002116;28;20022;-57
2021/11/03 03:59:53;;;;;;;2.60;2.22;;;;;;;;;;5002759;28;20025;-56
2021/11/03 04:02:19;;;;;;;2.53;2.03;;;;;;;;;;5005440;28;20038;-57
2021/11/03 04:04:44;;;;;;;2.33;2.10;;;;;;;;;;5003063;28;20046;-57
2021/11/03 04:07:10;;;;;;;3.10;2.17;;;;;;;;;;5003616;28;20056;-57
2021/11/03 04:09:35;;;;;;;5.90;2.58;;;;;;;;;;4998113;28;20053;-57
2021/11/03 04:12:00;;;;;;;2.40;2.13;;;;;;;;;;5003631;28;20065;-57
2021/11/03 04:14:26;;;;;;;2.47;2.00;;;;;;;;;;5001773;28;20037;-57
2021/11/03 04:16:51;;;;;;;2.92;2.00;;;;;;;;;;4997567;28;20029;-57
2021/11/03 04:19:17;;;;;;;3.50;2.33;;;;;;;;;;5001422;28;20092;-56
2021/11/03 04:21:42;;;;;;;2.40;2.10;;;;;;;;;;5003509;28;20022;-56
2021/11/03 04:24:08;;;;;;;3.33;2.05;;;;;;;;;;5000076;28;20313;-57
2021/11/03 04:26:36;;;;;;;2.88;2.17;;;;;;;;;;5004814;28;20033;-57
2021/11/03 04:29:03;;;;;;;2.03;1.75;;;;;;;;;;5001775;28;20030;-57
2021/11/03 04:31:28;;;;;;;2.67;1.90;;;;;;;;;;5005792;28;20045;-57
2021/11/03 04:33:54;;;;;;;2.25;1.65;;;;;;;;;;5004984;28;20034;-57
2021/11/03 04:36:21;;;;;;;2.03;1.52;;;;;;;;;;5001169;28;20477;-57
2021/11/03 04:38:50;;;;;;;2.67;1.30;;;;;;;;;;4999719;28;20105;-57
2021/11/03 04:41:16;;;;;;;3.72;1.55;;;;;;;;;;5001737;28;20113;-57
2021/11/03 04:43:42;;;;;;;2.75;1.30;;;;;;;;;;5005493;28;20452;-57
2021/11/03 04:46:07;;;;;;;2.38;1.52;;;;;;;;;;5000607;28;20103;-57
2021/11/03 04:48:33;;;;;;;2.55;1.50;;;;;;;;;;4997451;28;20037;-57
2021/11/03 04:50:59;;;;;;;2.47;1.95;;;;;;;;;;5005080;28;20408;-55
2021/11/03 04:53:24;;;;;;;3.10;1.67;;;;;;;;;;5001954;28;20112;-57
2021/11/03 04:55:52;;;;;;;5.15;2.10;;;;;;;;;;4996281;28;20116;-57
2021/11/03 04:58:17;;;;;;;2.53;1.30;;;;;;;;;;5001055;28;20029;-57
2021/11/03 05:00:46;;;;;;;2.45;1.48;;;;;;;;;;5003666;28;20095;-57
2021/11/03 05:03:12;;;;;;;3.17;1.63;;;;;;;;;;4998788;28;20085;-56
2021/11/03 05:05:38;;;;;;;2.28;1.25;;;;;;;;;;4994823;28;20445;-55
2021/11/03 05:08:04;;;;;;;4.68;1.95;;;;;;;;;;5002440;28;20096;-56
2021/11/03 05:10:29;;;;;;;3.60;1.60;;;;;;;;;;5001558;28;20164;-57
2021/11/03 05:12:55;;;;;;;4.60;1.98;;;;;;;;;;5001049;28;20026;-57
2021/11/03 05:15:20;;;;;;;3.25;1.80;;;;;;;;;;4999318;28;20057;-57
2021/11/03 05:17:46;;;;;;;2.17;1.08;;;;;;;;;;5004666;28;20030;-57
2021/11/03 05:20:15;;;;;;;2.88;1.50;;;;;;;;;;4999727;28;20438;-57
2021/11/03 05:22:40;;;;;;;3.03;1.30;;;;;;;;;;5003498;28;20033;-57
2021/11/03 05:25:06;;;;;;;2.38;1.27;;;;;;;;;;5003887;28;20038;-57
2021/11/03 05:27:32;;;;;;;2.72;1.35;;;;;;;;;;5002515;28;20440;-57
2021/11/03 05:29:58;;;;;;;1.30;1.20;;;;;;;;;;5006820;28;20041;-57
2021/11/03 05:32:24;;;;;;;2.63;1.55;;;;;;;;;;5003774;28;20034;-57
2021/11/03 05:34:49;;;;;;;2.65;1.25;;;;;;;;;;4999532;28;20777;-56
2021/11/03 05:37:17;;;;;;;3.35;2.03;;;;;;;;;;5001525;28;20034;-57
2021/11/03 05:39:42;;;;;;;3.25;1.38;;;;;;;;;;5002330;28;20033;-57
2021/11/03 05:42:08;;;;;;;2.13;1.38;;;;;;;;;;5001547;28;20038;-56
2021/11/03 05:44:34;;;;;;;2.83;1.63;;;;;;;;;;5003464;28;20210;-56
2021/11/03 05:47:00;;;;;;;5.07;1.70;;;;;;;;;;5001341;28;20029;-57
2021/11/03 05:49:30;;;;;;;1.80;1.38;;;;;;;;;;4998423;28;20095;-56
2021/11/03 05:51:57;;;;;;;1.98;1.67;;;;;;;;;;4998322;28;20034;-56
2021/11/03 05:54:27;;;;;;;1.65;1.20;;;;;;;;;;5002221;28;20042;-57
2021/11/03 05:56:55;;;;;;;2.42;1.17;;;;;;;;;;5000393;28;20030;-57
2021/11/03 05:59:21;;;;;;;2.28;0.90;;;;;;;;;;4999132;28;20032;-56
2021/11/03 06:01:47;;;;;;;2.63;1.20;;;;;;;;;;5004121;28;20511;-57
2021/11/03 06:04:12;;;;;;;2.03;1.20;;;;;;;;;;5003976;28;20395;-58
2021/11/03 06:06:38;;;;;;;2.22;1.30;;;;;;;;;;4997404;28;20099;-56
2021/11/03 06:09:07;;;;;;;2.15;1.15;;;;;;;;;;5017283;28;20108;-57
2021/11/03 06:11:33;;;;;;;2.63;1.55;;;;;;;;;;5003942;28;20034;-57
2021/11/03 06:13:59;;;;;;;2.13;1.40;;;;;;;;;;5018058;28;20040;-57
2021/11/03 06:16:24;;;;;;;2.28;1.08;;;;;;;;;;4999592;28;20026;-58
2021/11/03 06:18:51;;;;;;;1.58;1.33;;;;;;;;;;5003635;28;20346;-57
2021/11/03 06:21:17;;;;;;;1.27;1.17;;;;;;;;;;5004770;28;20038;-58
2021/11/03 06:23:43;;;;;;;2.67;1.30;;;;;;;;;;4996474;28;20033;-57
2021/11/03 06:26:12;;;;;;;1.55;1.05;;;;;;;;;;5000354;28;20037;-57
2021/11/03 06:28:37;;;;;;;1.48;1.20;;;;;;;;;;5016598;28;20121;-58
2021/11/03 06:31:03;;;;;;;1.63;1.00;;;;;;;;;;4999609;28;20469;-58
2021/11/03 06:33:28;;;;;;;2.17;1.27;;;;;;;;;;5008491;28;20030;-58
2021/11/03 06:35:55;;;;;;;2.03;1.25;;;;;;;;;;5001218;28;20077;-58
2021/11/03 06:38:21;;;;;;;2.00;1.40;;;;;;;;;;4998349;28;20540;-58
2021/11/03 06:40:47;;;;;;;2.53;1.25;;;;;;;;;;4999123;28;20037;-58
2021/11/03 06:43:12;;;;;;;2.50;1.52;;;;;;;;;;4999377;28;20030;-58
2021/11/03 06:45:38;;;;;;;1.92;1.30;;;;;;;;;;5002077;28;20022;-58
2021/11/03 06:48:04;;;;;;;1.73;1.20;;;;;;;;;;5000898;28;20072;-58
2021/11/03 06:50:34;;;;;;;3.80;2.33;;;;;;;;;;5004743;28;20421;-58
2021/11/03 06:53:01;;;;;;;6.25;2.85;;;;;;;;;;5020423;28;20249;-58
2021/11/03 06:55:28;;;;;;;3.90;2.95;;;;;;;;;;5008243;28;20045;-58
2021/11/03 06:57:56;;;;;;;8.98;4.80;;;;;;;;;;5002991;28;20133;-58
2021/11/03 07:00:26;;;;;;;6.00;4.00;;;;;;;;;;5001511;28;20014;-58
2021/11/03 07:02:52;;;;;;;7.30;4.13;;;;;;;;;;5008104;28;20088;-58
2021/11/03 07:05:17;;;;;;;4.88;2.50;;;;;;;;;;5002618;28;20408;-58
2021/11/03 07:07:43;;;;;;;10.57;2.35;;;;;;;;;;5000954;28;20026;-58
2021/11/03 07:10:11;;;;;;;5.00;2.10;;;;;;;;;;5005502;28;20112;-58
2021/11/03 07:12:37;;;;;;;4.05;2.38;;;;;;;;;;5004764;28;20026;-58
2021/11/03 07:15:02;;;;;;;4.55;2.90;;;;;;;;;;5005982;28;20033;-58
2021/11/03 07:17:28;;;;;;;3.63;2.63;;;;;;;;;;5003939;28;20022;-58
2021/11/03 07:19:54;;;;;;;4.20;2.95;;;;;;;;;;5003736;28;20400;-58
2021/11/03 07:22:19;;;;;;;4.22;2.70;;;;;;;;;;5001158;28;20054;-58
2021/11/03 07:24:46;;;;;;;11.13;5.57;;;;;;;;;;5005418;28;20065;-58
2021/11/03 07:27:11;;;;;;;11.48;5.43;;;;;;;;;;5005661;28;20091;-58
2021/11/03 07:29:40;;;;;;;9.02;5.43;;;;;;;;;;5003980;28;20125;-58
2021/11/03 07:32:06;;;;;;;7.60;4.47;;;;;;;;;;5005645;28;20052;-58
2021/11/03 07:34:32;;;;;;;6.93;4.68;;;;;;;;;;5003705;28;20033;-58
2021/11/03 07:36:57;;;;;;;23.77;13.07;;;;;;;;;;5007232;28;20029;-58
2021/11/03 07:39:23;;;;;;;25.38;13.30;;;;;;;;;;5005740;28;20034;-58
2021/11/03 07:41:48;;;;;;;21.73;12.23;;;;;;;;;;5003832;28;20029;-58
2021/11/03 07:44:16;;;;;;;24.40;12.85;;;;;;;;;;4998547;28;20036;-58
2021/11/03 07:46:41;;;;;;;25.75;14.43;;;;;;;;;;5006961;28;20022;-58
2021/11/03 07:49:07;;;;;;;27.67;16.38;;;;;;;;;;5003563;28;20022;-58
2021/11/03 07:51:33;;;;;;;22.50;12.50;;;;;;;;;;5004050;28;20247;-58
2021/11/03 07:53:59;;;;;;;6.40;3.83;;;;;;;;;;5020914;28;20080;-58
2021/11/03 07:56:26;;;;;;;6.03;3.95;;;;;;;;;;5002952;28;20023;-58
2021/11/03 07:58:53;;;;;;;9.30;5.32;;;;;;;;;;5002699;28;20452;-58
2021/11/03 08:01:19;;;;;;;10.85;5.90;;;;;;;;;;4997982;28;20014;-58
2021/11/03 08:03:45;;;;;;;13.93;6.63;;;;;;;;;;5005642;28;20026;-58
2021/11/03 08:06:12;;;;;;;13.48;6.00;;;;;;;;;;5002073;28;20468;-58
2021/11/03 08:09:03;;;;;;;8.82;6.40;;;;;;;;;;5002075;28;20867;-58
2021/11/03 08:11:35;;;;;;;9.93;6.20;;;;;;;;;;5009543;28;20040;-58
2021/11/03 08:14:04;;;;;;;10.80;6.75;;;;;;;;;;5004759;28;20042;-58
2021/11/03 08:16:52;;;;;;;11.38;6.75;;;;;;;;;;5006041;28;20029;-58
2021/11/03 08:19:22;;;;;;;14.30;7.95;;;;;;;;;;5002707;28;20037;-58
2021/11/03 08:21:47;;;;;;;31.13;11.23;;;;;;;;;;5005801;28;20022;-58
2021/11/03 08:24:13;;;;;;;38.55;14.32;;;;;;;;;;5002173;28;20037;-58
2021/11/03 08:26:38;;;;;;;23.25;9.90;;;;;;;;;;5004733;28;20034;-58
2021/11/03 08:29:04;;;;;;;24.67;12.18;;;;;;;;;;5003394;28;20445;-58
2021/11/03 08:31:30;;;;;;;7.78;2.63;;;;;;;;;;5001935;28;20481;-58
2021/11/03 08:33:55;;;;;;;4.07;1.42;;;;;;;;;;5006978;28;20072;-58
2021/11/03 08:36:21;;;;;;;3.75;1.88;;;;;;;;;;5003911;28;20496;-58
2021/11/03 08:38:49;;;;;;;3.50;1.67;;;;;;;;;;5005365;28;20045;-58
2021/11/03 08:41:14;;;;;;;5.50;1.90;;;;;;;;;;5003220;28;20033;-58
2021/11/03 08:43:42;;;;;;;6.10;3.70;;;;;;;;;;5001172;28;20101;-58
2021/11/03 08:46:08;;;;;;;5.57;3.55;;;;;;;;;;4999747;28;20029;-58
2021/11/03 08:48:33;;;;;;;3.50;2.60;;;;;;;;;;5004314;28;20018;-58
2021/11/03 08:50:59;;;;;;;1.90;1.65;;;;;;;;;;5011828;28;20152;-58
2021/11/03 08:53:24;;;;;;;2.70;1.10;;;;;;;;;;5003293;28;20030;-58
2021/11/03 08:55:51;;;;;;;2.45;1.95;;;;;;;;;;5000971;28;20056;-58
2021/11/03 08:58:21;;;;;;;5.75;3.72;;;;;;;;;;5004565;28;20036;-58
2021/11/03 09:00:49;;;;;;;1.70;1.60;;;;;;;;;;4994554;28;20159;-58
2021/11/03 09:03:15;;;;;;;3.05;2.25;;;;;;;;;;5007982;28;20090;-58
2021/11/03 09:05:41;;;;;;;2.25;1.75;;;;;;;;;;5005342;28;20022;-58
2021/11/03 09:08:08;;;;;;;1.27;1.17;;;;;;;;;;5010412;28;20527;-57
2021/11/03 09:10:46;;;;;;;2.00;1.80;;;;;;;;;;5002220;28;20474;-58
2021/11/03 09:13:16;;;;;;;2.55;1.58;;;;;;;;;;5019958;28;20168;-58
2021/11/03 09:15:43;;;;;;;2.45;1.80;;;;;;;;;;5000268;28;20083;-57
2021/11/03 09:18:09;;;;;;;5.13;2.42;;;;;;;;;;5004347;28;20033;-57
2021/11/03 09:20:35;;;;;;;4.50;3.03;;;;;;;;;;5003395;28;20473;-57
2021/11/03 09:23:00;;;;;;;2.97;1.85;;;;;;;;;;5003049;28;20037;-57
2021/11/03 09:25:26;;;;;;;3.92;2.97;;;;;;;;;;5009019;28;20040;-57
2021/11/03 09:27:52;;;;;;;2.55;1.70;;;;;;;;;;5016951;28;20022;-57
2021/11/03 09:30:21;;;;;;;3.55;2.70;;;;;;;;;;5002229;28;20436;-57
2021/11/03 09:32:49;;;;;;;3.07;2.47;;;;;;;;;;4998646;28;20057;-57
2021/11/03 09:35:16;;;;;;;2.72;2.20;;;;;;;;;;5014670;28;20501;-58
2021/11/03 09:37:41;;;;;;;5.57;3.28;;;;;;;;;;5003256;28;20072;-57
2021/11/03 09:40:16;;;;;;;2.47;2.03;;;;;;;;;;5003270;28;20104;-57
2021/11/03 09:42:42;;;;;;;3.45;2.33;;;;;;;;;;5000599;28;20172;-57
2021/11/03 09:45:17;;;;;;;2.33;1.70;;;;;;;;;;5005196;28;20535;-57
2021/11/03 09:48:03;;;;;;;1.80;1.50;;;;;;;;;;5001444;28;20048;-57
2021/11/03 09:50:35;;;;;;;2.97;1.73;;;;;;;;;;5005503;28;20420;-57
2021/11/03 09:53:08;;;;;;;3.60;1.85;;;;;;;;;;5000282;28;20033;-57
2021/11/03 09:55:34;;;;;;;7.65;3.95;;;;;;;;;;5005208;28;20495;-57
2021/11/03 09:58:07;;;;;;;9.73;6.18;;;;;;;;;;5002357;28;20043;-58
2021/11/03 10:00:51;;;;;;;12.50;6.82;;;;;;;;;;4996705;28;20022;-58
2021/11/03 10:03:22;;;;;;;12.95;6.72;;;;;;;;;;5003780;28;20410;-58
2021/11/03 10:05:55;;;;;;;11.60;6.40;;;;;;;;;;5003347;28;20586;-58
2021/11/03 10:08:24;;;;;;;15.57;9.68;;;;;;;;;;5003639;28;20033;-58
2021/11/03 10:10:53;;;;;;;15.38;9.10;;;;;;;;;;5001537;28;20040;-58
2021/11/03 10:13:28;;;;;;;11.45;7.55;;;;;;;;;;5002245;28;20067;-58
2021/11/03 10:16:17;;;;;;;11.20;7.20;;;;;;;;;;5001611;28;20026;-58
2021/11/03 10:18:52;;;;;;;13.75;7.40;;;;;;;;;;4996711;28;20531;-58
2021/11/03 10:21:26;;;;;;;10.27;6.93;;;;;;;;;;5001916;28;20064;-58
2021/11/03 10:23:55;;;;;;;15.43;7.72;;;;;;;;;;5002519;28;20133;-58
2021/11/03 10:26:21;;;;;;;12.17;7.07;;;;;;;;;;5001829;28;20072;-58
2021/11/03 10:28:52;;;;;;;11.07;7.20;;;;;;;;;;4998703;28;20038;-57
2021/11/03 10:31:39;;;;;;;14.18;7.50;;;;;;;;;;5000796;28;20026;-57
2021/11/03 10:34:18;;;;;;;13.82;7.65;;;;;;;;;;5001706;28;20038;-57
2021/11/03 10:36:46;;;;;;;13.13;7.65;;;;;;;;;;5003070;28;20113;-57
2021/11/03 10:39:19;;;;;;;11.30;6.85;;;;;;;;;;4998721;28;20022;-58
2021/11/03 10:41:55;;;;;;;9.73;6.07;;;;;;;;;;4998532;28;20022;-58
2021/11/03 10:44:27;;;;;;;8.98;5.85;;;;;;;;;;5002002;28;20481;-58
2021/11/03 10:46:54;;;;;;;9.07;5.72;;;;;;;;;;5001704;28;20469;-58
2021/11/03 10:49:36;;;;;;;8.50;5.93;;;;;;;;;;5001047;28;20107;-58
2021/11/03 10:52:17;;;;;;;11.90;5.80;;;;;;;;;;4999026;28;20035;-58
2021/11/03 10:54:53;;;;;;;12.90;6.00;;;;;;;;;;5001188;28;20029;-58
2021/11/03 10:57:25;;;;;;;11.15;6.47;;;;;;;;;;5015049;28;20034;-58
2021/11/03 11:00:12;;;;;;;12.25;7.18;;;;;;;;;;5002722;28;20652;-57
2021/11/03 11:02:51;;;;;;;18.60;8.95;;;;;;;;;;5002605;28;20040;-57
2021/11/03 11:05:22;;;;;;;10.30;6.95;;;;;;;;;;5004396;28;20112;-58
2021/11/03 11:07:58;;;;;;;10.13;6.50;;;;;;;;;;4999832;28;20471;-58
2021/11/03 11:10:32;;;;;;;7.05;4.20;;;;;;;;;;4994443;28;20031;-58
2021/11/03 11:12:59;;;;;;;6.65;3.83;;;;;;;;;;5002726;28;20025;-58
2021/11/03 11:15:32;;;;;;;8.95;3.97;;;;;;;;;;5000336;28;20060;-58
2021/11/03 11:18:06;;;;;;;6.03;3.92;;;;;;;;;;4999280;28;20505;-57
2021/11/03 11:20:41;;;;;;;6.25;4.05;;;;;;;;;;5003369;28;20038;-57
2021/11/03 11:23:17;;;;;;;9.85;4.72;;;;;;;;;;5001207;28;20040;-58
2021/11/03 11:25:59;;;;;;;5.50;3.78;;;;;;;;;;5001291;28;20017;-57
2021/11/03 11:28:45;;;;;;;6.30;3.25;;;;;;;;;;5000816;28;20045;-58
2021/11/03 11:31:21;;;;;;;9.20;2.88;;;;;;;;;;5006059;28;20026;-57
2021/11/03 11:34:11;;;;;;;6.97;3.00;;;;;;;;;;5005858;28;20034;-58
2021/11/03 11:36:48;;;;;;;7.95;3.25;;;;;;;;;;5004792;28;20037;-58
2021/11/03 11:39:18;;;;;;;9.80;3.30;;;;;;;;;;5004033;28;20026;-58
2021/11/03 11:42:00;;;;;;;5.78;3.38;;;;;;;;;;5002742;28;20025;-58
2021/11/03 11:44:32;;;;;;;6.43;3.00;;;;;;;;;;5006299;28;20022;-58
2021/11/03 11:47:03;;;;;;;5.10;2.83;;;;;;;;;;5004123;28;20045;-57
2021/11/03 11:49:33;;;;;;;4.55;2.65;;;;;;;;;;5001484;28;20021;-57
2021/11/03 11:52:05;;;;;;;6.00;3.20;;;;;;;;;;5005572;28;20542;-58
2021/11/03 11:54:37;;;;;;;9.80;5.03;;;;;;;;;;5004312;28;20030;-58
2021/11/03 11:57:12;;;;;;;7.18;3.55;;;;;;;;;;5008428;28;20030;-58
2021/11/03 12:00:08;;;;;;;5.65;2.95;;;;;;;;;;5004365;28;20025;-58
2021/11/03 12:02:52;;;;;;;6.82;3.33;;;;;;;;;;5011164;28;20029;-58
2021/11/03 12:05:21;;;;;;;4.55;2.67;;;;;;;;;;5003919;28;20046;-58
2021/11/03 12:08:08;;;;;;;4.65;3.45;;;;;;;;;;5004177;28;20064;-57
2021/11/03 12:10:41;;;;;;;3.25;2.55;;;;;;;;;;4999912;28;20033;-58
2021/11/03 12:13:45;;;;;;;5.22;2.92;;;;;;;;;;5004938;28;20030;-58
2021/11/03 12:16:33;;;;;;;4.28;2.47;;;;;;;;;;4989470;28;20491;-58
2021/11/03 12:19:03;;;;;;;4.82;2.60;;;;;;;;;;5004224;28;20044;-58
2021/11/03 12:21:28;;;;;;;11.38;5.10;;;;;;;;;;5003796;28;20478;-58
2021/11/03 12:24:06;;;;;;;7.05;3.22;;;;;;;;;;5009618;28;20041;-58
2021/11/03 12:26:31;;;;;;;6.22;2.30;;;;;;;;;;5010012;28;20141;-58
2021/11/03 12:28:58;;;;;;;5.82;2.95;;;;;;;;;;5004841;28;20109;-58
2021/11/03 12:31:56;;;;;;;8.50;3.25;;;;;;;;;;5006463;28;20290;-58
2021/11/03 12:34:24;;;;;;;10.07;3.88;;;;;;;;;;5003424;28;20092;-58
2021/11/03 12:36:56;;;;;;;3.53;2.88;;;;;;;;;;5002584;28;20544;-58
2021/11/03 12:39:27;;;;;;;11.10;4.00;;;;;;;;;;5002133;28;20034;-56
2021/11/03 12:41:56;;;;;;;6.90;3.42;;;;;;;;;;5004871;28;20028;-57
2021/11/03 12:44:29;;;;;;;5.00;2.90;;;;;;;;;;5006439;28;20022;-58
2021/11/03 12:46:55;;;;;;;7.82;3.58;;;;;;;;;;5003290;28;20057;-56
2021/11/03 12:49:24;;;;;;;5.85;3.53;;;;;;;;;;5011778;28;20030;-57
2021/11/03 12:51:54;;;;;;;6.03;3.58;;;;;;;;;;4997713;28;20018;-57
2021/11/03 12:54:26;;;;;;;5.60;3.33;;;;;;;;;;5021674;28;20040;-57
2021/11/03 12:57:06;;;;;;;5.63;3.10;;;;;;;;;;5003461;28;20034;-57
2021/11/03 12:59:38;;;;;;;4.68;3.17;;;;;;;;;;5005141;28;20033;-57
2021/11/03 13:02:24;;;;;;;4.78;3.17;;;;;;;;;;5006698;28;20188;-57
2021/11/03 13:05:00;;;;;;;9.00;4.15;;;;;;;;;;4999341;28;20030;-57
2021/11/03 13:07:29;;;;;;;7.30;3.78;;;;;;;;;;5004748;28;20588;-57
2021/11/03 13:09:57;;;;;;;5.55;3.92;;;;;;;;;;5000458;28;20041;-57
2021/11/03 13:12:30;;;;;;;5.85;3.65;;;;;;;;;;5006646;28;20152;-57
2021/11/03 13:15:14;;;;;;;4.65;3.00;;;;;;;;;;5004968;28;20531;-57
2021/11/03 13:17:50;;;;;;;4.25;2.65;;;;;;;;;;4997208;28;20029;-57
2021/11/03 13:20:29;;;;;;;3.13;2.50;;;;;;;;;;4999940;28;20018;-57
2021/11/03 13:22:56;;;;;;;6.32;3.53;;;;;;;;;;5003590;28;20168;-57
2021/11/03 13:25:36;;;;;;;2.80;2.13;;;;;;;;;;5003878;28;20036;-57
2021/11/03 13:28:02;;;;;;;;;;;;;;;;;;5004050;28;20041;-57
2021/11/03 13:30:34;;;;;;;8.05;4.05;;;;;;;;;;5002467;28;19918;-57
2021/11/03 13:33:02;;;;;;;12.98;4.60;;;;;;;;;;5007268;28;20033;-57
2021/11/03 13:35:36;;;;;;;12.82;4.50;;;;;;;;;;5007330;28;20116;-57
2021/11/03 13:38:20;;;;;;;6.90;4.50;;;;;;;;;;4998705;28;20121;-58
2021/11/03 13:40:52;;;;;;;10.13;4.50;;;;;;;;;;5000459;28;20033;-57
2021/11/03 13:43:19;;;;;;;7.45;4.35;;;;;;;;;;4997630;28;20041;-58
2021/11/03 13:45:49;;;;;;;10.38;5.97;;;;;;;;;;5004674;28;20080;-57
2021/11/03 13:48:17;;;;;;;10.52;6.30;;;;;;;;;;5004920;28;20050;-58
2021/11/03 13:50:55;;;;;;;10.05;5.70;;;;;;;;;;5003166;28;20109;-57
2021/11/03 13:53:34;;;;;;;5.35;3.72;;;;;;;;;;5002174;28;20481;-57
2021/11/03 13:56:02;;;;;;;10.57;5.65;;;;;;;;;;5002918;28;20029;-57
2021/11/03 13:58:34;;;;;;;7.07;4.30;;;;;;;;;;4999424;28;20172;-58
2021/11/03 14:01:07;;;;;;;7.13;3.00;;;;;;;;;;5006091;28;20549;-58
2021/11/03 14:03:50;;;;;;;5.63;3.63;;;;;;;;;;5002040;28;20567;-58
2021/11/03 14:06:34;;;;;;;6.18;3.78;;;;;;;;;;4999062;28;20026;-59
2021/11/03 14:09:21;;;;;;;5.70;4.00;;;;;;;;;;4999678;28;20518;-58
2021/11/03 14:11:50;;;;;;;14.85;8.90;;;;;;;;;;5005168;28;20480;-57
2021/11/03 14:14:17;;;;;;;24.83;12.70;;;;;;;;;;5004917;28;20152;-58
2021/11/03 14:16:48;;;;;;;5.13;3.88;;;;;;;;;;5001838;28;20496;-58
2021/11/03 14:19:43;;;;;;;4.57;3.20;;;;;;;;;;5001457;28;20523;-58
2021/11/03 14:22:24;;;;;;;5.78;4.45;;;;;;;;;;4966185;28;20034;-58
2021/11/03 14:24:51;;;;;;;5.47;3.92;;;;;;;;;;5001850;28;20376;-59
2021/11/03 14:27:16;;;;;;;4.60;2.95;;;;;;;;;;5003074;28;20408;-59
2021/11/03 14:29:42;;;;;;;5.13;3.80;;;;;;;;;;5003544;28;20120;-59
2021/11/03 14:32:14;;;;;;;14.45;6.88;;;;;;;;;;5004801;28;20061;-58
2021/11/03 14:34:41;;;;;;;6.22;3.97;;;;;;;;;;5001997;28;20049;-60
2021/11/03 14:37:07;;;;;;;4.72;3.53;;;;;;;;;;4995890;28;20555;-59
2021/11/03 14:39:35;;;;;;;5.25;3.20;;;;;;;;;;5003150;28;20034;-60
2021/11/03 14:42:01;;;;;;;3.97;3.20;;;;;;;;;;5000117;28;20044;-58
2021/11/03 14:44:27;;;;;;;3.72;3.03;;;;;;;;;;5000119;28;20038;-59
2021/11/03 14:46:58;;;;;;;6.40;3.95;;;;;;;;;;5004963;28;20033;-58
2021/11/03 14:49:31;;;;;;;5.07;3.88;;;;;;;;;;4997413;28;20441;-59
2021/11/03 14:52:02;;;;;;;8.43;4.57;;;;;;;;;;4998850;28;20026;-59
2021/11/03 14:54:28;;;;;;;11.60;6.55;;;;;;;;;;4999764;28;20026;-58